Time;durP1;ratioP1;P1;durP2;ratioP2;P2;SDS_P1;SDS_P2;PMS_P1;PMS_P2;Temp;Humidity;BMP_temperature;BMP_pressure;BME280_temperature;BME280_humidity;BME280_pressure;Samples;Min_cycle;Max_cycle;Signal;HPM_P1;HPM_P2
2022/09/07 00:00:26;;;;;;;9.38;3.53;;;17.30;99.90;;;;;;5067076;28;20028;-82
2022/09/07 00:02:51;;;;;;;4.57;3.65;;;17.20;99.90;;;;;;5048934;28;20068;-83
2022/09/07 00:05:17;;;;;;;4.07;3.17;;;17.20;99.90;;;;;;5066465;28;20048;-80
2022/09/07 00:07:43;;;;;;;3.72;2.97;;;17.20;99.90;;;;;;5066951;28;20020;-84
2022/09/07 00:10:09;;;;;;;4.07;3.10;;;17.10;99.90;;;;;;5048908;28;20120;-82
2022/09/07 00:12:34;;;;;;;8.60;3.28;;;17.20;99.90;;;;;;5048641;28;20039;-84
2022/09/07 00:15:02;;;;;;;3.78;3.05;;;17.20;99.90;;;;;;5066067;28;20041;-83
2022/09/07 00:17:28;;;;;;;7.50;2.95;;;17.10;99.90;;;;;;5048717;28;20033;-82
2022/09/07 00:19:54;;;;;;;9.70;3.72;;;17.10;99.90;;;;;;5068279;28;20027;-84
2022/09/07 00:22:20;;;;;;;4.18;3.20;;;17.10;99.90;;;;;;5051802;28;20060;-84
2022/09/07 00:24:45;;;;;;;4.68;3.20;;;17.00;99.90;;;;;;5052033;28;20103;-85
2022/09/07 00:27:11;;;;;;;4.78;3.20;;;17.00;99.90;;;;;;5050345;28;20148;-83
2022/09/07 00:29:37;;;;;;;7.80;3.40;;;17.00;99.90;;;;;;5053767;28;20064;-84
2022/09/07 00:32:03;;;;;;;6.63;4.15;;;17.00;99.90;;;;;;5072168;28;20021;-83
2022/09/07 00:34:28;;;;;;;10.10;3.55;;;17.10;99.90;;;;;;5052935;28;20360;-82
2022/09/07 00:36:54;;;;;;;5.07;3.33;;;17.20;99.90;;;;;;5053049;28;20090;-83
2022/09/07 00:39:19;;;;;;;5.40;3.20;;;17.20;99.90;;;;;;5053814;28;20082;-81
2022/09/07 00:41:45;;;;;;;7.85;2.75;;;17.30;99.90;;;;;;5051958;28;20473;-83
2022/09/07 00:44:42;;;;;;;5.28;2.75;;;17.40;99.90;;;;;;5070019;28;20701;-84
2022/09/07 00:47:36;;;;;;;12.55;3.95;;;17.50;99.90;;;;;;5051622;28;20032;-83
2022/09/07 00:50:08;;;;;;;5.28;3.53;;;17.60;99.90;;;;;;5054225;28;20147;-83
2022/09/07 00:52:35;;;;;;;4.20;3.08;;;17.60;99.90;;;;;;5053681;28;20012;-84
2022/09/07 00:55:06;;;;;;;7.55;2.92;;;17.50;99.90;;;;;;5052817;28;20033;-84
2022/09/07 00:57:33;;;;;;;4.10;2.55;;;17.40;99.90;;;;;;5053116;28;20025;-83
2022/09/07 00:59:59;;;;;;;4.57;3.85;;;17.40;99.90;;;;;;5053426;28;20066;-83
2022/09/07 01:02:25;;;;;;;5.90;3.20;;;17.30;99.90;;;;;;5051797;28;20485;-80
2022/09/07 01:04:57;;;;;;;8.45;3.03;;;17.30;99.90;;;;;;5051476;28;20036;-81
2022/09/07 01:07:23;;;;;;;8.57;2.92;;;17.30;99.90;;;;;;5051495;28;20021;-82
2022/09/07 01:09:49;;;;;;;6.57;2.75;;;17.30;99.90;;;;;;5068945;28;20117;-81
2022/09/07 01:12:15;;;;;;;7.85;3.28;;;17.40;99.90;;;;;;5051083;28;20020;-82
2022/09/07 01:14:47;;;;;;;4.55;3.20;;;17.50;99.90;;;;;;5069420;28;20039;-82
2022/09/07 01:17:38;;;;;;;4.38;2.78;;;17.50;99.90;;;;;;5051249;28;20115;-81
2022/09/07 01:20:27;;;;;;;4.28;2.95;;;17.50;99.90;;;;;;5068846;28;20047;-81
2022/09/07 01:23:30;;;;;;;6.57;3.10;;;17.40;99.90;;;;;;5051742;28;20020;-81
2022/09/07 01:26:33;;;;;;;3.95;3.03;;;17.40;99.90;;;;;;5051047;28;20135;-82
2022/09/07 01:29:26;;;;;;;7.40;3.22;;;17.20;99.90;;;;;;5051744;28;20587;-81
2022/09/07 01:32:09;;;;;;;5.32;3.00;;;17.20;99.90;;;;;;5051290;28;20029;-82
2022/09/07 01:34:36;;;;;;;6.05;3.88;;;17.00;99.90;;;;;;5050567;28;20075;-81
2022/09/07 01:37:34;;;;;;;7.40;4.35;;;17.00;99.90;;;;;;5051158;28;20396;-80
2022/09/07 01:40:10;;;;;;;9.13;3.65;;;17.00;99.90;;;;;;5049828;28;20546;-81
2022/09/07 01:42:45;;;;;;;8.27;3.58;;;17.00;99.90;;;;;;5051004;28;20491;-80
2022/09/07 01:45:15;;;;;;;6.82;3.58;;;16.90;99.90;;;;;;5069111;28;20139;-82
2022/09/07 01:47:54;;;;;;;4.20;3.10;;;17.00;99.90;;;;;;5068881;28;20036;-81
2022/09/07 01:50:19;;;;;;;4.10;3.10;;;16.90;99.90;;;;;;5050673;28;20052;-81
2022/09/07 01:52:51;;;;;;;4.03;2.90;;;16.90;99.90;;;;;;5050388;28;20025;-81
2022/09/07 01:55:26;;;;;;;5.45;3.83;;;16.90;99.90;;;;;;5050419;28;20021;-81
2022/09/07 01:58:34;;;;;;;8.95;3.33;;;16.80;99.90;;;;;;5050857;28;20024;-81
2022/09/07 02:01:32;;;;;;;4.45;3.10;;;16.80;99.90;;;;;;5050707;28;20074;-81
2022/09/07 02:04:13;;;;;;;6.20;3.08;;;16.80;99.90;;;;;;5050088;28;20111;-82
2022/09/07 02:06:57;;;;;;;6.60;4.20;;;16.70;99.90;;;;;;5069659;28;20104;-81
2022/09/07 02:09:46;;;;;;;5.78;2.88;;;16.70;99.90;;;;;;5050382;28;20037;-80
2022/09/07 02:12:27;;;;;;;6.65;3.45;;;16.70;99.90;;;;;;5052628;28;20024;-79
2022/09/07 02:15:01;;;;;;;8.25;3.38;;;16.70;99.90;;;;;;5069021;28;20036;-80
2022/09/07 02:17:37;;;;;;;4.70;2.72;;;16.70;99.90;;;;;;5068321;28;20492;-79
2022/09/07 02:20:16;;;;;;;8.38;3.85;;;16.60;99.90;;;;;;5050241;28;20025;-81
2022/09/07 02:22:47;;;;;;;5.88;2.80;;;16.60;99.90;;;;;;5050998;28;20027;-82
2022/09/07 02:25:24;;;;;;;9.48;3.20;;;16.50;99.90;;;;;;5051019;28;20070;-82
2022/09/07 02:27:55;;;;;;;6.13;2.88;;;16.50;99.90;;;;;;5050773;28;20031;-80
2022/09/07 02:30:20;;;;;;;9.27;3.30;;;16.50;99.90;;;;;;5050651;28;20413;-81
2022/09/07 02:32:46;;;;;;;5.15;3.20;;;16.40;99.90;;;;;;5050451;28;20036;-81
2022/09/07 02:35:13;;;;;;;7.82;3.00;;;16.40;99.90;;;;;;5068314;28;20512;-80
2022/09/07 02:37:41;;;;;;;7.15;3.92;;;16.30;99.90;;;;;;5053027;28;20017;-84
2022/09/07 02:40:07;;;;;;;5.40;3.20;;;16.30;99.90;;;;;;5052871;28;20533;-83
2022/09/07 02:42:35;;;;;;;7.43;3.40;;;16.30;99.90;;;;;;5050804;28;20024;-81
2022/09/07 02:45:04;;;;;;;3.88;2.90;;;16.20;99.90;;;;;;5068103;28;20035;-82
2022/09/07 02:47:54;;;;;;;5.15;3.20;;;16.20;99.90;;;;;;5068716;28;20016;-81
2022/09/07 02:50:27;;;;;;;5.15;2.97;;;16.20;99.90;;;;;;5049920;28;20106;-81
2022/09/07 02:53:14;;;;;;;6.40;2.88;;;16.20;99.90;;;;;;5049856;28;20044;-81
2022/09/07 02:56:05;;;;;;;4.93;3.13;;;16.20;99.90;;;;;;5050189;28;20020;-81
2022/09/07 02:58:54;;;;;;;5.40;2.70;;;16.20;99.90;;;;;;5050536;28;20024;-81
2022/09/07 03:01:22;;;;;;;5.10;2.25;;;16.20;99.90;;;;;;5036326;28;20065;-83
2022/09/07 03:04:18;;;;;;;4.35;2.80;;;16.20;99.90;;;;;;5031456;28;20025;-81
2022/09/07 03:06:54;;;;;;;3.60;2.55;;;16.30;99.90;;;;;;5030654;28;20052;-81
2022/09/07 03:09:26;;;;;;;5.75;2.58;;;16.20;99.90;;;;;;5036772;28;20044;-80
2022/09/07 03:11:53;;;;;;;4.80;2.88;;;16.30;99.90;;;;;;5054106;28;20135;-81
2022/09/07 03:14:22;;;;;;;4.75;2.78;;;16.30;99.90;;;;;;5049736;28;20024;-80
2022/09/07 03:16:51;;;;;;;4.03;2.70;;;16.30;99.90;;;;;;5067612;28;20020;-81
2022/09/07 03:19:17;;;;;;;4.55;2.33;;;16.30;99.90;;;;;;5049464;28;20136;-81
2022/09/07 03:21:43;;;;;;;7.90;3.25;;;16.30;99.90;;;;;;5067304;28;20039;-80
2022/09/07 03:24:08;;;;;;;5.68;3.00;;;16.30;99.90;;;;;;5050696;28;20036;-82
2022/09/07 03:26:38;;;;;;;4.70;2.80;;;16.20;99.90;;;;;;5051408;28;20021;-83
2022/09/07 03:29:04;;;;;;;4.57;2.90;;;16.10;99.90;;;;;;5069873;28;20037;-84
2022/09/07 03:31:32;;;;;;;4.47;3.00;;;16.10;99.90;;;;;;5051109;28;20051;-83
2022/09/07 03:33:58;;;;;;;4.63;2.58;;;16.10;99.90;;;;;;5068752;28;20029;-83
2022/09/07 03:36:23;;;;;;;4.30;2.92;;;16.10;99.90;;;;;;5051606;28;20016;-84
2022/09/07 03:38:49;;;;;;;3.88;2.47;;;16.10;99.90;;;;;;5051416;28;20169;-83
2022/09/07 03:41:15;;;;;;;4.05;2.35;;;16.00;99.90;;;;;;5067745;28;20025;-83
2022/09/07 03:43:40;;;;;;;4.85;2.47;;;16.00;99.90;;;;;;5049098;28;20035;-83
2022/09/07 03:46:09;;;;;;;4.38;2.03;;;16.00;99.90;;;;;;5050126;28;20024;-83
2022/09/07 03:48:36;;;;;;;4.47;2.55;;;16.00;99.90;;;;;;5068574;28;20139;-82
2022/09/07 03:51:04;;;;;;;3.88;2.75;;;16.00;99.90;;;;;;5050866;28;20029;-82
2022/09/07 03:53:32;;;;;;;3.53;2.25;;;16.00;99.90;;;;;;5050843;28;20021;-83
2022/09/07 03:56:08;;;;;;;6.90;2.63;;;16.00;99.90;;;;;;5051004;28;20032;-82
2022/09/07 03:58:34;;;;;;;;;;;16.00;99.90;;;;;;5033253;28;20033;-83
2022/09/07 04:01:07;;;;;;;3.35;2.42;;;16.00;99.90;;;;;;5030884;28;19927;-83
2022/09/07 04:03:33;;;;;;;10.02;2.70;;;16.00;99.90;;;;;;5032578;28;20017;-83
2022/09/07 04:06:00;;;;;;;2.63;2.00;;;16.00;99.90;;;;;;5035039;28;20033;-85
2022/09/07 04:08:31;;;;;;;3.90;2.50;;;16.00;99.90;;;;;;5052872;28;20025;-84
2022/09/07 04:10:59;;;;;;;7.50;3.13;;;16.00;99.90;;;;;;5034684;28;20033;-85
2022/09/07 04:13:26;;;;;;;4.82;2.33;;;16.00;99.90;;;;;;5042658;28;20051;-83
2022/09/07 04:15:52;;;;;;;5.68;3.13;;;16.00;99.90;;;;;;5054528;28;20056;-83
2022/09/07 04:18:18;;;;;;;3.47;2.72;;;16.00;99.90;;;;;;5054654;28;20032;-84
2022/09/07 04:20:44;;;;;;;5.05;3.67;;;16.00;99.90;;;;;;5054696;28;20028;-85
2022/09/07 04:23:10;;;;;;;5.00;3.10;;;15.90;99.90;;;;;;5054222;28;20032;-84
2022/09/07 04:25:35;;;;;;;9.20;3.17;;;16.00;99.90;;;;;;5054209;28;20021;-83
2022/09/07 04:28:01;;;;;;;7.60;3.65;;;16.00;99.90;;;;;;5071691;28;20119;-85
2022/09/07 04:30:27;;;;;;;4.18;2.67;;;16.00;99.90;;;;;;5054972;28;20063;-85
2022/09/07 04:32:53;;;;;;;3.55;2.47;;;16.00;99.90;;;;;;5055731;28;20497;-85
2022/09/07 04:35:18;;;;;;;2.50;2.30;;;16.00;99.90;;;;;;5047938;28;20070;-85
2022/09/07 04:37:44;;;;;;;5.63;2.08;;;16.00;99.90;;;;;;5035476;28;20385;-85
2022/09/07 04:40:11;;;;;;;8.10;3.30;;;16.10;99.90;;;;;;5035543;28;20032;-85
2022/09/07 04:42:36;;;;;;;3.15;2.10;;;16.20;99.90;;;;;;5035272;28;20094;-85
2022/09/07 04:45:03;;;;;;;4.28;2.42;;;16.30;99.90;;;;;;5039665;28;20544;-85
2022/09/07 04:47:29;;;;;;;3.35;2.20;;;16.40;99.90;;;;;;5054790;28;20767;-85
2022/09/07 04:49:55;;;;;;;5.63;2.80;;;16.50;99.90;;;;;;5054762;28;20044;-84
2022/09/07 04:52:22;;;;;;;7.70;2.75;;;16.80;99.90;;;;;;5054559;28;20028;-84
2022/09/07 04:54:49;;;;;;;3.42;2.55;;;17.10;99.90;;;;;;5072627;28;20021;-85
2022/09/07 04:57:15;;;;;;;6.93;2.53;;;17.30;99.90;;;;;;5054848;28;20017;-85
2022/09/07 04:59:41;;;;;;;10.40;2.55;;;17.50;99.90;;;;;;5054949;28;20036;-84
2022/09/07 05:02:07;;;;;;;7.93;1.95;;;17.80;99.90;;;;;;5054776;28;20055;-85
2022/09/07 05:04:35;;;;;;;3.97;2.25;;;18.00;99.90;;;;;;5055256;28;20381;-86
2022/09/07 05:07:01;;;;;;;4.30;2.60;;;18.20;99.90;;;;;;5054592;28;20052;-85
2022/09/07 05:09:27;;;;;;;4.82;1.98;;;18.30;99.90;;;;;;5054431;28;20040;-82
2022/09/07 05:11:53;;;;;;;3.20;1.90;;;18.40;99.90;;;;;;5053306;28;20034;-86
2022/09/07 05:14:19;;;;;;;2.95;2.22;;;18.40;99.90;;;;;;5054060;28;20071;-86
2022/09/07 05:16:44;;;;;;;3.53;1.70;;;18.70;99.90;;;;;;5054504;28;20661;-86
2022/09/07 05:19:11;;;;;;;8.73;2.20;;;19.30;99.90;;;;;;5054681;28;20024;-85
2022/09/07 05:21:37;;;;;;;4.68;2.20;;;19.90;99.90;;;;;;5054388;28;20025;-85
2022/09/07 05:24:03;;;;;;;4.63;2.25;;;20.30;99.90;;;;;;5054653;28;20025;-86
2022/09/07 05:26:32;;;;;;;3.55;2.10;;;20.70;99.90;;;;;;5054486;28;20029;-86
2022/09/07 05:29:02;;;;;;;4.45;2.10;;;20.90;99.90;;;;;;5072627;28;20036;-86
2022/09/07 05:31:29;;;;;;;5.97;1.90;;;21.20;99.90;;;;;;5054597;28;20028;-86
2022/09/07 05:33:58;;;;;;;7.32;1.70;;;21.40;99.90;;;;;;5071988;28;20040;-87
2022/09/07 05:36:26;;;;;;;4.82;1.70;;;21.60;99.90;;;;;;5053680;28;20084;-86
2022/09/07 05:38:52;;;;;;;7.97;2.28;;;21.90;99.90;;;;;;5054691;28;20028;-87
2022/09/07 05:41:20;;;;;;;3.05;1.60;;;22.00;99.90;;;;;;5054285;28;20017;-86
2022/09/07 05:43:47;;;;;;;3.75;2.15;;;22.00;99.90;;;;;;5072203;28;20049;-86
2022/09/07 05:46:13;;;;;;;3.28;2.00;;;22.30;99.90;;;;;;5054087;28;20021;-86
2022/09/07 05:48:40;;;;;;;7.85;2.47;;;22.50;99.90;;;;;;5053761;28;20048;-86
2022/09/07 05:51:06;;;;;;;3.95;2.00;;;22.50;99.90;;;;;;5053600;28;20078;-88
2022/09/07 05:53:37;;;;;;;3.72;1.70;;;22.50;99.90;;;;;;5053563;28;20547;-86
2022/09/07 05:56:03;;;;;;;3.58;1.80;;;22.40;99.90;;;;;;5054385;28;20029;-86
2022/09/07 05:58:31;;;;;;;4.28;1.92;;;22.60;99.90;;;;;;5053828;28;20028;-86
2022/09/07 06:01:17;;;;;;;13.15;1.70;;;22.40;99.90;;;;;;5053824;28;20032;-86
2022/09/07 06:03:43;;;;;;;7.10;1.90;;;22.60;99.90;;;;;;5053743;28;20036;-85
2022/09/07 06:06:15;;;;;;;4.25;1.60;;;22.60;99.90;;;;;;5053730;28;20060;-86
2022/09/07 06:08:46;;;;;;;7.82;2.10;;;22.90;99.90;;;;;;5054478;28;20032;-86
2022/09/07 06:11:15;;;;;;;2.97;1.67;;;23.00;99.90;;;;;;5055592;28;20032;-86
2022/09/07 06:13:41;;;;;;;4.90;1.67;;;23.20;99.90;;;;;;5053912;28;20050;-86
2022/09/07 06:16:08;;;;;;;9.85;2.45;;;23.40;99.90;;;;;;5071614;28;20031;-87
2022/09/07 06:18:36;;;;;;;5.25;2.17;;;23.60;99.90;;;;;;5053705;28;20028;-87
2022/09/07 06:21:09;;;;;;;5.45;2.10;;;24.00;99.90;;;;;;5053771;28;20028;-85
2022/09/07 06:23:38;;;;;;;5.78;1.50;;;24.10;99.90;;;;;;5053464;28;20031;-87
2022/09/07 06:26:04;;;;;;;5.78;1.60;;;24.20;99.90;;;;;;5052772;28;20082;-88
2022/09/07 06:28:51;;;;;;;4.00;2.00;;;24.70;99.90;;;;;;5053768;28;20044;-87
2022/09/07 06:31:19;;;;;;;6.40;1.80;;;25.00;99.30;;;;;;5070780;28;20093;-87
2022/09/07 06:33:46;;;;;;;2.42;1.45;;;25.10;99.00;;;;;;5053686;28;20021;-87
2022/09/07 06:36:18;;;;;;;5.20;1.30;;;25.40;99.00;;;;;;5053393;28;20044;-88
2022/09/07 06:38:45;;;;;;;4.75;1.33;;;25.70;98.40;;;;;;5051213;28;20030;-87
2022/09/07 06:41:21;;;;;;;4.22;1.30;;;25.70;98.40;;;;;;5049939;28;20032;-86
2022/09/07 06:43:47;;;;;;;;;;;26.20;97.90;;;;;;5054184;28;20017;-88
2022/09/07 06:46:13;;;;;;;3.25;1.52;;;26.30;97.20;;;;;;5053490;28;19931;-87
2022/09/07 06:48:39;;;;;;;6.40;1.45;;;26.40;96.60;;;;;;5068014;28;20119;-87
2022/09/07 06:51:13;;;;;;;4.80;1.60;;;26.50;96.80;;;;;;5050920;28;20503;-88
2022/09/07 06:53:39;;;;;;;2.20;1.20;;;26.70;96.20;;;;;;5033483;28;20102;-87
2022/09/07 06:56:07;;;;;;;4.32;1.50;;;26.80;95.90;;;;;;5033056;28;20060;-87
2022/09/07 06:58:33;;;;;;;2.83;1.58;;;27.10;95.90;;;;;;5050591;28;20024;-87
2022/09/07 07:01:05;;;;;;;3.42;1.75;;;27.30;94.80;;;;;;5053204;28;20032;-85
2022/09/07 07:03:31;;;;;;;3.30;1.08;;;27.40;94.50;;;;;;5070831;28;20048;-85
2022/09/07 07:05:56;;;;;;;3.78;1.73;;;27.40;93.60;;;;;;5052575;28;20195;-86
2022/09/07 07:08:24;;;;;;;3.28;1.25;;;27.50;93.00;;;;;;5052939;28;20131;-86
2022/09/07 07:10:50;;;;;;;2.08;1.30;;;27.50;92.90;;;;;;5051995;28;20032;-85
2022/09/07 07:13:17;;;;;;;5.05;1.30;;;27.60;92.70;;;;;;5045944;28;20032;-87
2022/09/07 07:15:43;;;;;;;1.80;1.20;;;27.50;92.60;;;;;;5033345;28;20021;-86
2022/09/07 07:18:09;;;;;;;7.05;1.65;;;27.40;92.50;;;;;;5032949;28;20024;-86
2022/09/07 07:20:40;;;;;;;1.98;1.10;;;27.90;92.10;;;;;;5031418;28;20029;-85
2022/09/07 07:23:06;;;;;;;3.38;1.40;;;28.20;91.50;;;;;;5013516;28;20117;-85
2022/09/07 07:25:34;;;;;;;6.65;1.52;;;28.30;91.30;;;;;;5013097;28;20032;-85
2022/09/07 07:28:00;;;;;;;8.90;1.60;;;28.70;90.00;;;;;;5013531;28;20403;-87
2022/09/07 07:30:25;;;;;;;3.15;1.30;;;28.90;88.50;;;;;;5013008;28;20036;-86
2022/09/07 07:32:51;;;;;;;3.00;1.45;;;29.10;87.10;;;;;;5013267;28;20025;-87
2022/09/07 07:35:17;;;;;;;5.72;2.13;;;28.80;87.10;;;;;;5020219;28;20079;-87
2022/09/07 07:37:43;;;;;;;3.10;1.50;;;28.90;84.90;;;;;;5052852;28;20021;-87
2022/09/07 07:40:11;;;;;;;3.50;1.60;;;29.10;85.40;;;;;;5057019;28;20016;-86
2022/09/07 07:42:38;;;;;;;4.05;1.20;;;29.30;84.70;;;;;;5055858;28;20078;-87
2022/09/07 07:45:08;;;;;;;6.07;1.95;;;29.60;83.80;;;;;;5037056;28;20117;-86
2022/09/07 07:47:34;;;;;;;4.65;1.85;;;29.80;80.20;;;;;;5054907;28;20178;-87
2022/09/07 07:50:01;;;;;;;6.05;1.83;;;30.10;80.10;;;;;;5036415;28;20525;-86
2022/09/07 07:52:35;;;;;;;5.15;1.52;;;30.30;79.20;;;;;;5036428;28;20028;-86
2022/09/07 07:55:01;;;;;;;3.78;1.73;;;30.10;77.50;;;;;;5036816;28;20036;-86
2022/09/07 07:57:27;;;;;;;4.90;2.33;;;30.10;78.60;;;;;;5044797;28;20028;-86
2022/09/07 07:59:53;;;;;;;6.05;2.15;;;30.30;77.50;;;;;;5056471;28;20025;-87
2022/09/07 08:02:19;;;;;;;5.07;2.55;;;30.60;75.90;;;;;;5056626;28;20035;-86
2022/09/07 08:04:44;;;;;;;4.18;2.13;;;30.50;75.40;;;;;;5056218;28;20119;-86
2022/09/07 08:07:10;;;;;;;4.18;1.80;;;30.40;75.80;;;;;;5056327;28;20408;-87
2022/09/07 08:09:41;;;;;;;8.68;2.42;;;30.60;75.90;;;;;;5056500;28;20032;-86
2022/09/07 08:12:08;;;;;;;8.70;3.65;;;30.80;73.90;;;;;;5056630;28;20028;-86
2022/09/07 08:14:39;;;;;;;9.63;3.80;;;30.60;74.40;;;;;;5056001;28;20025;-84
2022/09/07 08:17:08;;;;;;;10.85;3.60;;;30.50;75.30;;;;;;5055992;28;20028;-85
2022/09/07 08:19:33;;;;;;;9.65;3.30;;;30.60;75.40;;;;;;5056147;28;20032;-87
2022/09/07 08:21:59;;;;;;;8.43;3.20;;;31.00;73.70;;;;;;5056508;28;20478;-87
2022/09/07 08:24:25;;;;;;;6.00;3.20;;;30.90;76.00;;;;;;5056482;28;20035;-87
2022/09/07 08:26:51;;;;;;;6.13;2.90;;;30.70;74.50;;;;;;5074033;28;20027;-85
2022/09/07 08:29:17;;;;;;;6.93;3.20;;;31.10;74.50;;;;;;5056217;28;20040;-87
2022/09/07 08:31:43;;;;;;;5.38;2.72;;;31.50;73.30;;;;;;5057309;28;20021;-87
2022/09/07 08:34:10;;;;;;;7.88;3.20;;;31.10;72.60;;;;;;5077973;28;20016;-87
2022/09/07 08:36:35;;;;;;;10.73;3.08;;;31.10;72.80;;;;;;5076571;28;20587;-87
2022/09/07 08:39:01;;;;;;;7.45;2.90;;;31.20;72.80;;;;;;5062523;28;20040;-87
2022/09/07 08:42:20;;;;;;;6.57;2.63;;;31.10;71.60;;;;;;5056541;28;20534;-87
2022/09/07 08:45:07;;;;;;;5.93;2.63;;;31.30;72.30;;;;;;5012649;28;20022;-86
2022/09/07 08:47:44;;;;;;;9.05;2.60;;;30.90;72.70;;;;;;4995395;28;20112;-87
2022/09/07 08:50:30;;;;;;;5.97;2.35;;;31.30;71.10;;;;;;5059254;28;20504;-87
2022/09/07 08:53:12;;;;;;;5.85;2.78;;;31.00;72.50;;;;;;5073820;28;20021;-87
2022/09/07 08:55:48;;;;;;;4.03;2.22;;;31.20;71.70;;;;;;5055106;28;20039;-87
2022/09/07 08:58:30;;;;;;;;;;;31.30;72.10;;;;;;5056419;28;20028;-87
2022/09/07 09:00:57;;;;;;;5.78;2.58;;;31.20;72.30;;;;;;5055191;28;19958;-86
2022/09/07 09:03:29;;;;;;;6.05;3.22;;;31.10;71.60;;;;;;5056076;28;20162;-87
2022/09/07 09:06:06;;;;;;;5.80;2.80;;;30.80;71.40;;;;;;5055381;28;20029;-87
2022/09/07 09:09:06;;;;;;;7.50;3.17;;;30.90;73.20;;;;;;5054579;28;20033;-87
2022/09/07 09:11:57;;;;;;;7.55;3.47;;;31.30;71.70;;;;;;5054648;28;20029;-87
2022/09/07 09:14:53;;;;;;;10.40;3.17;;;31.00;72.50;;;;;;5055407;28;20025;-86
2022/09/07 09:17:19;;;;;;;5.70;2.70;;;31.20;72.70;;;;;;5054812;28;20067;-88
2022/09/07 09:20:03;;;;;;;8.93;3.33;;;30.90;73.10;;;;;;5055896;28;20036;-86
2022/09/07 09:22:30;;;;;;;7.03;3.05;;;30.40;74.00;;;;;;5055296;28;20020;-86
2022/09/07 09:25:25;;;;;;;15.32;2.50;;;30.10;74.30;;;;;;5055432;28;20112;-86
2022/09/07 09:27:51;;;;;;;5.70;3.03;;;29.80;75.70;;;;;;5055320;28;20112;-87
2022/09/07 09:30:19;;;;;;;4.97;3.55;;;29.60;76.30;;;;;;5054546;28;20178;-86
2022/09/07 09:32:48;;;;;;;7.68;2.70;;;29.50;76.10;;;;;;5055124;28;20165;-86
2022/09/07 09:35:34;;;;;;;7.95;2.70;;;29.30;77.10;;;;;;5069502;28;20028;-87
2022/09/07 09:38:02;;;;;;;;;;;28.90;77.50;;;;;;5053192;28;20051;-87
2022/09/07 09:40:33;;;;;;;10.23;3.90;;;28.60;79.00;;;;;;5055155;28;20030;-88
2022/09/07 09:43:20;;;;;;;11.85;3.22;;;28.50;79.70;;;;;;5054781;28;20024;-88
2022/09/07 09:45:52;;;;;;;8.43;3.30;;;28.30;80.20;;;;;;5054900;28;20103;-88
2022/09/07 09:48:24;;;;;;;7.85;2.83;;;28.10;81.00;;;;;;5054617;28;20124;-89
2022/09/07 09:50:53;;;;;;;7.30;3.08;;;28.30;81.30;;;;;;5054370;28;20079;-89
2022/09/07 09:53:32;;;;;;;8.20;3.13;;;28.70;80.50;;;;;;5054299;28;20078;-87
2022/09/07 09:56:00;;;;;;;10.82;3.03;;;29.20;78.60;;;;;;5054174;28;20115;-86
2022/09/07 09:58:37;;;;;;;13.48;3.25;;;29.50;77.30;;;;;;5054164;28;20037;-87
2022/09/07 10:01:05;;;;;;;5.03;2.70;;;30.10;77.40;;;;;;5071264;28;20059;-87
2022/09/07 10:03:33;;;;;;;7.05;2.83;;;30.40;76.90;;;;;;5053700;28;20489;-87
2022/09/07 10:06:12;;;;;;;17.85;3.55;;;30.80;74.60;;;;;;5053675;28;20047;-86
2022/09/07 10:08:48;;;;;;;10.63;3.17;;;31.30;73.70;;;;;;5051866;28;20032;-84
2022/09/07 10:11:14;;;;;;;6.18;3.58;;;31.60;72.40;;;;;;5051551;28;20366;-84
2022/09/07 10:13:54;;;;;;;11.68;3.50;;;31.90;72.10;;;;;;5052066;28;20029;-84
2022/09/07 10:16:39;;;;;;;14.90;3.15;;;32.10;70.70;;;;;;5051945;28;20036;-84
2022/09/07 10:19:05;;;;;;;16.35;3.00;;;32.30;70.50;;;;;;5069820;28;20033;-84
2022/09/07 10:21:31;;;;;;;9.05;3.17;;;32.30;71.00;;;;;;5050854;28;20123;-83
2022/09/07 10:24:14;;;;;;;8.88;2.75;;;32.10;71.30;;;;;;5050937;28;20111;-83
2022/09/07 10:26:46;;;;;;;17.67;2.88;;;31.90;71.50;;;;;;5052236;28;20048;-85
2022/09/07 10:29:11;;;;;;;9.18;3.30;;;31.50;70.70;;;;;;5053231;28;20032;-84
2022/09/07 10:31:56;;;;;;;6.38;2.67;;;31.00;70.70;;;;;;5052769;28;20038;-84
2022/09/07 10:34:46;;;;;;;4.77;2.90;;;30.50;73.00;;;;;;5070251;28;20029;-84
2022/09/07 10:38:06;;;;;;;4.40;2.38;;;30.10;73.20;;;;;;5052475;28;20396;-84
2022/09/07 10:40:57;;;;;;;3.90;2.38;;;29.30;74.00;;;;;;5008547;28;20022;-84
2022/09/07 10:43:49;;;;;;;10.55;3.70;;;28.60;76.10;;;;;;5051557;28;20040;-85
2022/09/07 10:46:49;;;;;;;4.78;2.75;;;28.40;77.80;;;;;;5053099;28;20033;-84
2022/09/07 10:49:23;;;;;;;6.55;2.70;;;28.20;78.30;;;;;;5061598;28;20056;-84
2022/09/07 10:52:00;;;;;;;5.18;2.10;;;28.20;78.70;;;;;;5032707;28;20025;-84
2022/09/07 10:54:52;;;;;;;4.10;2.58;;;28.20;77.80;;;;;;5050674;28;20086;-85
2022/09/07 10:57:34;;;;;;;7.07;3.03;;;28.30;77.30;;;;;;5031848;28;20043;-84
2022/09/07 11:00:11;;;;;;;3.45;2.33;;;28.30;77.50;;;;;;5032088;28;20031;-84
2022/09/07 11:02:58;;;;;;;3.25;2.10;;;28.50;76.90;;;;;;5032125;28;20028;-83
2022/09/07 11:05:53;;;;;;;3.05;2.30;;;28.70;76.30;;;;;;5031623;28;20037;-85
2022/09/07 11:08:33;;;;;;;3.55;2.05;;;28.90;75.00;;;;;;5031545;28;20044;-85
2022/09/07 11:11:07;;;;;;;10.80;2.60;;;28.80;75.10;;;;;;5031704;28;20610;-84
2022/09/07 11:13:39;;;;;;;5.03;2.28;;;28.80;75.00;;;;;;5032404;28;20029;-84
2022/09/07 11:16:12;;;;;;;5.75;2.35;;;28.80;73.90;;;;;;5033552;28;20021;-84
2022/09/07 11:18:51;;;;;;;5.10;2.17;;;28.40;74.50;;;;;;5032677;28;20497;-84
2022/09/07 11:21:21;;;;;;;7.00;2.47;;;28.40;75.70;;;;;;5050142;28;20040;-85
2022/09/07 11:23:55;;;;;;;2.90;2.22;;;28.10;75.60;;;;;;5031523;28;20029;-83
2022/09/07 11:26:26;;;;;;;4.10;2.42;;;28.10;76.60;;;;;;5032166;28;20025;-85
2022/09/07 11:29:09;;;;;;;5.03;2.17;;;28.20;75.50;;;;;;5036514;28;20044;-84
2022/09/07 11:31:40;;;;;;;3.28;2.50;;;28.10;74.90;;;;;;5053253;28;20131;-85
2022/09/07 11:34:35;;;;;;;6.22;2.30;;;28.00;75.10;;;;;;5052200;28;20031;-84
2022/09/07 11:37:15;;;;;;;9.18;2.40;;;28.00;75.50;;;;;;5046710;28;20033;-84
2022/09/07 11:39:51;;;;;;;5.78;1.80;;;27.80;74.20;;;;;;5051982;28;20028;-85
2022/09/07 11:42:25;;;;;;;2.65;2.05;;;27.70;75.80;;;;;;5069843;28;20032;-85
2022/09/07 11:45:17;;;;;;;9.02;2.60;;;27.60;75.60;;;;;;5052194;28;20029;-85
2022/09/07 11:47:46;;;;;;;5.93;2.22;;;27.50;75.90;;;;;;5051916;28;20393;-85
2022/09/07 11:50:17;;;;;;;3.45;2.33;;;27.60;76.20;;;;;;5069650;28;20056;-84
2022/09/07 11:52:50;;;;;;;4.10;3.08;;;27.60;77.40;;;;;;5052008;28;20103;-85
2022/09/07 11:55:38;;;;;;;5.78;2.40;;;27.50;77.30;;;;;;5051600;28;20064;-84
2022/09/07 11:58:25;;;;;;;3.53;2.15;;;27.50;78.30;;;;;;5051883;28;20031;-84
2022/09/07 12:01:06;;;;;;;3.78;2.80;;;27.70;79.30;;;;;;5069620;28;20108;-85
2022/09/07 12:04:00;;;;;;;2.42;1.90;;;27.80;76.30;;;;;;5051769;28;20067;-84
2022/09/07 12:06:38;;;;;;;3.08;2.00;;;27.70;77.60;;;;;;5055214;28;20020;-84
2022/09/07 12:09:29;;;;;;;8.05;1.95;;;27.80;79.10;;;;;;5067107;28;20297;-85
2022/09/07 12:12:01;;;;;;;3.65;1.90;;;27.90;77.50;;;;;;5068015;28;20551;-84
2022/09/07 12:14:51;;;;;;;2.47;2.10;;;28.10;76.30;;;;;;5052645;28;20043;-84
2022/09/07 12:17:31;;;;;;;7.75;2.30;;;28.30;76.40;;;;;;5043981;28;20029;-85
2022/09/07 12:20:14;;;;;;;2.90;1.88;;;28.30;75.10;;;;;;5032318;28;20397;-85
2022/09/07 12:22:58;;;;;;;3.42;1.88;;;28.40;75.30;;;;;;5032461;28;20383;-85
2022/09/07 12:25:24;;;;;;;3.10;2.10;;;28.50;74.70;;;;;;5034034;28;20028;-84
2022/09/07 12:27:50;;;;;;;4.63;2.47;;;28.50;74.90;;;;;;5035206;28;20515;-84
2022/09/07 12:30:17;;;;;;;3.88;2.38;;;28.50;75.50;;;;;;5034773;28;20037;-85
2022/09/07 12:32:45;;;;;;;6.15;2.08;;;28.50;74.60;;;;;;5050701;28;20361;-85
2022/09/07 12:35:32;;;;;;;5.18;2.08;;;28.70;73.30;;;;;;5051630;28;20024;-84
2022/09/07 12:38:04;;;;;;;8.32;1.92;;;28.70;72.20;;;;;;5034811;28;20036;-85
2022/09/07 12:40:33;;;;;;;2.95;2.00;;;28.50;73.00;;;;;;5035273;28;20159;-84
2022/09/07 12:43:32;;;;;;;3.72;1.77;;;28.60;73.40;;;;;;5034861;28;20099;-85
2022/09/07 12:45:59;;;;;;;5.82;2.35;;;28.70;73.20;;;;;;5048731;28;20028;-84
2022/09/07 12:48:49;;;;;;;3.28;2.00;;;28.80;72.70;;;;;;5054210;28;20043;-85
2022/09/07 12:51:34;;;;;;;1.80;1.55;;;29.00;72.10;;;;;;5055559;28;20025;-84
2022/09/07 12:54:05;;;;;;;5.63;2.20;;;29.00;70.20;;;;;;5054480;28;20024;-84
2022/09/07 12:57:09;;;;;;;5.97;2.25;;;29.00;71.20;;;;;;5054819;28;20093;-85
2022/09/07 12:59:49;;;;;;;2.90;2.00;;;28.90;70.80;;;;;;5032637;28;20480;-84
2022/09/07 13:02:30;;;;;;;3.28;1.95;;;28.90;72.50;;;;;;5055107;28;20025;-85
2022/09/07 13:05:47;;;;;;;3.60;1.88;;;28.80;72.90;;;;;;5034672;28;20031;-85
2022/09/07 13:08:33;;;;;;;5.00;2.53;;;28.80;73.10;;;;;;5000170;28;20037;-83
2022/09/07 13:11:26;;;;;;;7.13;2.83;;;28.80;72.60;;;;;;5016772;28;20156;-84
2022/09/07 13:14:05;;;;;;;3.92;2.22;;;28.90;72.20;;;;;;5051971;28;20033;-85
2022/09/07 13:16:37;;;;;;;4.22;2.10;;;28.90;73.20;;;;;;5037326;28;20078;-84
2022/09/07 13:19:04;;;;;;;6.25;2.30;;;28.90;73.20;;;;;;5038795;28;20029;-84